Time;durP1;ratioP1;P1;durP2;ratioP2;P2;SDS_P1;SDS_P2;PMS_P1;PMS_P2;Temp;Humidity;BMP_temperature;BMP_pressure;BME280_temperature;BME280_humidity;BME280_pressure;Samples;Min_cycle;Max_cycle;Signal;HPM_P1;HPM_P2
2024/01/24 00:02:08;;;;;;;3.90;3.40;;;11.80;99.90;;;13.34;76.25;100683.81;3080976;46;20455;-74
2024/01/24 00:04:37;;;;;;;3.90;3.00;;;11.80;99.90;;;13.43;75.73;100671.25;3081296;46;20467;-75
2024/01/24 00:07:05;;;;;;;5.20;3.03;;;11.90;99.90;;;13.50;75.97;100672.91;3080146;46;20431;-75
2024/01/24 00:09:33;;;;;;;4.43;3.40;;;11.90;99.90;;;13.56;75.67;100656.28;3080836;46;20431;-74
2024/01/24 00:12:02;;;;;;;3.80;3.50;;;12.00;99.90;;;13.61;75.71;100673.38;3081159;46;20522;-75
2024/01/24 00:14:31;;;;;;;3.80;3.37;;;12.00;99.90;;;13.60;75.81;100651.41;3080961;46;20587;-74
2024/01/24 00:16:59;;;;;;;5.00;4.00;;;12.10;99.90;;;13.66;75.51;100660.38;3080794;46;20537;-75
2024/01/24 00:19:28;;;;;;;3.37;3.07;;;12.10;99.90;;;13.71;75.53;100676.50;3083598;46;20429;-75
2024/01/24 00:21:56;;;;;;;4.47;3.73;;;12.10;99.90;;;13.74;75.23;100657.59;3083553;46;20530;-75
2024/01/24 00:24:25;;;;;;;3.53;3.20;;;12.20;99.90;;;13.76;75.88;100676.72;3083275;46;20459;-75
2024/01/24 00:26:53;;;;;;;5.00;3.67;;;12.20;99.90;;;13.76;75.50;100674.06;3083069;46;20472;-75
2024/01/24 00:29:22;;;;;;;4.87;3.40;;;12.30;99.90;;;13.82;75.71;100660.03;3083189;46;20428;-74
2024/01/24 00:31:50;;;;;;;5.43;3.77;;;12.30;99.90;;;13.84;75.53;100642.16;3083396;46;20465;-75
2024/01/24 00:34:18;;;;;;;4.63;3.70;;;12.30;99.90;;;13.86;75.85;100646.22;3082526;46;20430;-74
2024/01/24 00:36:49;;;;;;;3.87;3.57;;;12.40;99.90;;;13.94;75.61;100666.41;3083321;46;20430;-75
2024/01/24 00:39:17;;;;;;;4.33;3.80;;;12.40;99.90;;;13.96;75.62;100667.84;3083196;46;20430;-75
2024/01/24 00:41:46;;;;;;;4.70;4.10;;;12.50;99.90;;;14.02;75.43;100639.78;3083031;46;21005;-74
2024/01/24 00:44:15;;;;;;;4.20;3.80;;;12.50;99.90;;;14.06;75.36;100636.53;3082843;46;21036;-74
2024/01/24 00:46:43;;;;;;;5.07;4.47;;;12.50;99.90;;;14.10;75.34;100636.94;3082912;46;20439;-75
2024/01/24 00:49:13;;;;;;;5.90;4.40;;;12.50;99.90;;;14.10;75.44;100656.28;3082605;46;20463;-75
2024/01/24 00:51:41;;;;;;;4.37;3.97;;;12.60;99.90;;;14.13;75.02;100631.25;3083047;46;21142;-74
2024/01/24 00:54:10;;;;;;;4.07;3.77;;;12.60;99.90;;;14.15;75.00;100634.50;3083105;46;20426;-75
2024/01/24 00:56:40;;;;;;;5.53;4.13;;;12.60;99.90;;;14.15;75.08;100623.91;3082778;46;20451;-75
2024/01/24 00:59:08;;;;;;;6.50;4.20;;;12.60;99.90;;;14.17;75.33;100629.81;3082560;46;20468;-74
2024/01/24 01:01:36;;;;;;;3.87;3.57;;;12.60;99.90;;;14.18;75.49;100626.19;3082829;46;20477;-75
2024/01/24 01:04:05;;;;;;;6.90;4.10;;;12.70;99.90;;;14.18;75.16;100623.53;3082135;46;20427;-75
2024/01/24 01:06:33;;;;;;;3.97;3.60;;;12.70;99.90;;;14.21;75.28;100617.84;3082559;46;21030;-75
2024/01/24 01:09:03;;;;;;;4.90;3.53;;;12.70;99.90;;;14.23;75.24;100621.09;3082417;46;21075;-75
2024/01/24 01:11:31;;;;;;;6.83;4.17;;;12.70;99.90;;;14.25;75.46;100619.88;3082889;46;20571;-75
2024/01/24 01:13:59;;;;;;;4.97;3.33;;;12.70;99.90;;;14.28;75.64;100618.66;3083080;46;20459;-75
2024/01/24 01:16:28;;;;;;;4.80;4.33;;;12.70;99.90;;;14.30;75.56;100611.38;3082345;46;20552;-75
2024/01/24 01:18:56;;;;;;;6.83;4.47;;;12.80;99.90;;;14.31;75.84;100618.28;3082555;46;21052;-75
2024/01/24 01:21:25;;;;;;;4.50;4.10;;;12.80;99.90;;;14.35;75.58;100603.63;3083146;46;20429;-74
2024/01/24 01:23:53;;;;;;;4.27;3.90;;;12.80;99.90;;;14.36;75.97;100591.22;3083053;46;20438;-75
2024/01/24 01:26:21;;;;;;;4.57;4.17;;;12.80;99.90;;;14.35;76.08;100593.03;3081752;46;20435;-74
2024/01/24 01:28:50;;;;;;;6.57;4.83;;;12.90;99.90;;;14.37;76.14;100591.00;3082373;46;21128;-75
2024/01/24 01:31:18;;;;;;;5.13;4.13;;;12.90;99.90;;;14.39;75.69;100583.66;3082458;46;20592;-74
2024/01/24 01:33:47;;;;;;;7.17;4.43;;;12.90;99.90;;;14.42;75.59;100593.88;3082642;46;20432;-75
2024/01/24 01:36:15;;;;;;;4.70;4.20;;;12.90;99.90;;;14.45;75.97;100582.88;3082540;46;20431;-75
2024/01/24 01:38:50;;;;;;;4.50;4.10;;;12.90;99.90;;;14.49;76.20;100588.56;3082743;46;20952;-75
2024/01/24 01:41:18;;;;;;;4.50;4.10;;;13.00;99.90;;;14.51;76.28;100595.28;3082737;46;20431;-75
2024/01/24 01:43:47;;;;;;;4.67;4.27;;;13.00;99.90;;;14.52;76.27;100583.69;3082669;46;20455;-74
2024/01/24 01:46:18;;;;;;;7.27;4.27;;;13.00;99.90;;;14.49;76.30;100568.19;3081604;46;20668;-74
2024/01/24 01:48:49;;;;;;;4.20;3.80;;;13.00;99.90;;;14.54;76.39;100564.94;3082368;46;20442;-75
2024/01/24 01:51:21;;;;;;;4.10;3.70;;;13.10;99.90;;;14.56;76.17;100558.41;3082436;46;20431;-75
2024/01/24 01:53:50;;;;;;;4.67;3.73;;;13.10;99.90;;;14.58;76.38;100564.31;3082867;46;20431;-74
2024/01/24 01:56:21;;;;;;;3.87;3.50;;;13.10;99.90;;;14.61;76.15;100563.09;3082500;46;20548;-75
2024/01/24 01:58:50;;;;;;;4.17;3.27;;;13.10;99.90;;;14.63;76.21;100553.94;3081449;46;20490;-74
2024/01/24 02:01:20;;;;;;;4.70;3.73;;;13.10;99.90;;;14.67;76.36;100539.25;3082509;46;20427;-75
2024/01/24 02:03:49;;;;;;;4.33;3.97;;;13.20;99.90;;;14.69;76.43;100545.13;3081627;46;20550;-75
2024/01/24 02:06:17;;;;;;;3.83;3.47;;;13.20;99.90;;;14.66;76.49;100527.03;3082320;46;20432;-75
2024/01/24 02:08:46;;;;;;;3.37;3.17;;;13.20;99.90;;;14.71;76.72;100532.50;3082011;46;20439;-75
2024/01/24 02:11:14;;;;;;;3.47;3.17;;;13.20;99.90;;;14.73;76.73;100538.44;3082047;46;20576;-74
2024/01/24 02:13:43;;;;;;;3.20;3.00;;;13.30;99.90;;;14.77;76.28;100544.94;3081757;46;20545;-75
2024/01/24 02:16:13;;;;;;;4.03;3.73;;;13.30;99.90;;;14.81;76.21;100540.84;3082401;46;20590;-75
2024/01/24 02:18:47;;;;;;;4.43;3.27;;;13.30;99.90;;;14.82;76.21;100539.00;3082130;46;20497;-75
2024/01/24 02:21:15;;;;;;;3.03;2.73;;;13.30;99.90;;;14.81;76.48;100524.13;3082203;46;20439;-74
2024/01/24 02:23:47;;;;;;;3.47;2.97;;;13.40;99.90;;;14.85;76.37;100520.88;3082278;46;20431;-75
2024/01/24 02:26:16;;;;;;;2.67;2.47;;;13.40;99.90;;;14.89;76.52;100508.84;3082113;46;20489;-74
2024/01/24 02:28:44;;;;;;;2.37;2.17;;;13.40;99.90;;;14.93;76.38;100517.16;3081630;46;20451;-75
2024/01/24 02:31:13;;;;;;;2.13;1.93;;;13.40;99.90;;;14.94;76.32;100529.41;3082185;46;20483;-75
2024/01/24 02:33:41;;;;;;;2.30;2.10;;;13.50;99.90;;;14.99;76.39;100515.53;3082194;46;21039;-75
2024/01/24 02:36:10;;;;;;;2.33;1.90;;;13.50;99.90;;;15.04;76.08;100513.06;3082077;46;20513;-74
2024/01/24 02:38:38;;;;;;;2.30;1.67;;;13.60;99.90;;;15.10;76.15;100522.81;3081631;46;20439;-76
2024/01/24 02:41:07;;;;;;;1.90;1.70;;;13.60;99.90;;;15.15;75.73;100515.06;3080928;46;20629;-74
2024/01/24 02:43:36;;;;;;;3.07;1.63;;;13.60;99.90;;;15.19;75.83;100518.94;3081931;46;20501;-75
2024/01/24 02:46:04;;;;;;;1.20;1.20;;;13.70;99.90;;;15.21;75.56;100536.28;3081515;46;20495;-74
2024/01/24 02:48:33;;;;;;;2.20;1.47;;;13.70;99.90;;;15.23;75.67;100528.09;3081506;46;20465;-74
2024/01/24 02:51:01;;;;;;;1.30;1.20;;;13.70;99.90;;;15.25;75.20;100548.06;3081863;46;20578;-74
2024/01/24 02:53:29;;;;;;;1.07;1.07;;;13.70;99.90;;;15.23;75.01;100530.75;3081987;46;20427;-75
2024/01/24 02:55:58;;;;;;;1.37;0.80;;;13.80;99.90;;;15.23;74.88;100546.66;3081889;46;20553;-75
2024/01/24 02:58:26;;;;;;;1.60;1.07;;;13.80;99.90;;;15.26;75.10;100512.56;3081333;46;20541;-75
2024/01/24 03:00:55;;;;;;;1.83;0.80;;;13.80;99.90;;;15.27;74.59;100486.88;3081645;46;21114;-74
2024/01/24 03:03:23;;;;;;;0.70;0.70;;;13.80;99.90;;;15.30;74.66;100492.56;3081785;46;20439;-74
2024/01/24 03:05:52;;;;;;;0.83;0.83;;;13.80;99.90;;;15.34;74.07;100498.25;3081882;46;20428;-75
2024/01/24 03:08:20;;;;;;;1.53;1.00;;;13.90;99.90;;;15.36;73.95;100467.03;3081338;46;20439;-75
2024/01/24 03:10:48;;;;;;;1.80;0.80;;;13.90;99.90;;;15.36;74.12;100501.50;3081644;46;20573;-74
2024/01/24 03:13:18;;;;;;;1.10;0.80;;;13.90;99.90;;;15.32;74.11;100506.44;3081577;46;20460;-74
2024/01/24 03:15:46;;;;;;;4.00;1.30;;;13.90;99.90;;;15.28;74.03;100520.34;3081905;46;20427;-75
2024/01/24 03:18:15;;;;;;;0.60;0.60;;;13.90;99.90;;;15.25;73.64;100510.97;3081385;46;21034;-75
2024/01/24 03:20:44;;;;;;;0.50;0.50;;;13.90;99.90;;;15.23;73.83;100544.00;3081631;46;21142;-75
2024/01/24 03:23:12;;;;;;;1.63;0.60;;;13.90;99.90;;;15.20;73.76;100549.72;3081771;46;20541;-74
2024/01/24 03:25:41;;;;;;;3.00;0.80;;;13.80;99.90;;;15.18;74.01;100504.03;3081452;46;20431;-75
2024/01/24 03:28:09;;;;;;;3.87;0.90;;;13.80;99.90;;;15.15;74.00;100525.66;3081149;46;20439;-75
2024/01/24 03:30:37;;;;;;;0.70;0.70;;;13.80;99.90;;;15.13;74.24;100506.50;3081275;46;20481;-75
2024/01/24 03:33:06;;;;;;;0.73;0.60;;;13.80;99.90;;;15.08;73.92;100507.13;3081176;46;20452;-74
2024/01/24 03:35:34;;;;;;;1.93;0.80;;;13.70;99.90;;;15.03;73.88;100491.03;3081375;46;20557;-74
2024/01/24 03:38:04;;;;;;;2.10;0.80;;;13.70;99.80;;;14.95;73.63;100474.56;3080945;46;20439;-74
2024/01/24 03:40:32;;;;;;;2.30;0.70;;;13.60;99.70;;;14.91;73.68;100477.63;3081479;46;21088;-75
2024/01/24 03:43:01;;;;;;;2.00;0.70;;;13.60;99.50;;;14.89;73.40;100487.63;3081294;46;21079;-75
2024/01/24 03:45:29;;;;;;;1.53;0.60;;;13.60;99.40;;;14.84;72.75;100484.78;3081267;46;21018;-74
2024/01/24 03:47:57;;;;;;;2.87;0.93;;;13.50;99.10;;;14.82;72.85;100447.09;3081043;46;20525;-75
2024/01/24 03:50:26;;;;;;;2.80;1.20;;;13.50;98.90;;;14.79;72.16;100495.19;3081176;46;20432;-74
2024/01/24 03:52:54;;;;;;;4.87;1.33;;;13.50;98.50;;;14.80;72.08;100475.63;3080092;46;20448;-74
2024/01/24 03:55:23;;;;;;;3.03;0.90;;;13.50;98.60;;;14.82;71.60;100481.53;3081294;46;20455;-74
2024/01/24 03:57:51;;;;;;;3.73;1.40;;;13.40;98.10;;;14.84;70.81;100482.13;3081131;46;20447;-74
2024/01/24 04:00:20;;;;;;;2.57;1.30;;;13.40;97.90;;;14.86;70.14;100480.09;3081411;46;20431;-74
2024/01/24 04:02:48;;;;;;;4.27;1.37;;;13.40;97.40;;;14.86;69.42;100506.59;3081414;46;20438;-75
2024/01/24 04:05:17;;;;;;;3.97;1.50;;;13.40;96.60;;;14.86;67.95;100509.25;3081406;46;20427;-75
2024/01/24 04:07:45;;;;;;;5.27;1.80;;;13.40;96.00;;;14.85;67.57;100515.59;3081017;46;20492;-75
2024/01/24 04:10:15;;;;;;;6.90;1.77;;;13.40;96.00;;;14.82;67.23;100494.78;3080848;46;21407;-75
2024/01/24 04:12:43;;;;;;;5.87;2.27;;;13.40;95.80;;;14.80;66.62;100494.19;3080777;46;20987;-75
2024/01/24 04:15:12;;;;;;;6.33;1.77;;;13.40;95.30;;;14.78;65.68;100514.78;3080953;46;20431;-75
2024/01/24 04:17:40;;;;;;;6.73;2.33;;;13.40;95.00;;;14.75;65.65;100523.13;3080755;46;20562;-75
2024/01/24 04:20:09;;;;;;;8.70;2.47;;;13.40;94.90;;;14.74;65.04;100544.53;3080925;46;20525;-75
2024/01/24 04:22:38;;;;;;;5.33;1.90;;;13.40;94.30;;;14.73;64.93;100532.31;3081005;46;21003;-75
2024/01/24 04:25:07;;;;;;;10.47;2.57;;;13.40;94.60;;;14.72;64.73;100547.38;3081183;46;20426;-75
2024/01/24 04:27:36;;;;;;;10.60;2.60;;;13.30;94.30;;;14.72;64.72;100536.78;3080634;46;20471;-74
2024/01/24 04:30:06;;;;;;;8.70;2.17;;;13.30;94.40;;;14.71;64.20;100544.97;3080810;46;20518;-75
2024/01/24 04:32:35;;;;;;;9.40;2.60;;;13.30;94.40;;;14.71;64.17;100542.31;3080801;46;20430;-74
2024/01/24 04:35:04;;;;;;;7.83;2.80;;;13.30;94.40;;;14.73;64.33;100556.97;3080927;46;20475;-75
2024/01/24 04:37:32;;;;;;;7.90;2.37;;;13.30;94.40;;;14.73;64.31;100548.22;3080337;46;20499;-75
2024/01/24 04:40:01;;;;;;;9.43;2.87;;;13.30;94.30;;;14.72;64.03;100562.47;3081099;46;20455;-75
2024/01/24 04:42:29;;;;;;;10.10;3.37;;;13.30;94.20;;;14.71;63.45;100547.59;3081035;46;20506;-74
2024/01/24 04:44:58;;;;;;;12.83;3.40;;;13.30;94.00;;;14.70;63.40;100564.50;3080814;46;20572;-75
2024/01/24 04:47:26;;;;;;;13.10;3.27;;;13.30;93.90;;;14.68;63.81;100577.97;3080409;46;21114;-73
2024/01/24 04:49:55;;;;;;;9.50;2.97;;;13.30;94.00;;;14.67;63.51;100565.72;3080976;46;20431;-75
2024/01/24 04:52:23;;;;;;;8.13;3.23;;;13.30;93.80;;;14.66;63.35;100558.81;3080340;46;20967;-74
2024/01/24 04:54:52;;;;;;;13.83;3.43;;;13.30;93.70;;;14.63;62.88;100548.63;3080615;46;20455;-75
2024/01/24 04:57:20;;;;;;;9.63;3.03;;;13.30;93.90;;;14.62;63.10;100573.47;3080481;46;20568;-75
2024/01/24 04:59:49;;;;;;;12.00;4.00;;;13.30;93.70;;;14.64;62.98;100591.84;3080625;46;20474;-75
2024/01/24 05:02:23;;;;;;;8.97;2.60;;;13.30;93.50;;;14.62;62.39;100584.06;3080471;46;20428;-75
2024/01/24 05:04:51;;;;;;;14.67;3.03;;;13.30;93.40;;;14.65;62.68;100561.66;3082686;46;21023;-75
2024/01/24 05:07:19;;;;;;;12.00;3.20;;;13.30;93.40;;;14.71;62.55;100584.69;3082708;46;21042;-74
2024/01/24 05:09:48;;;;;;;8.67;3.13;;;13.30;93.70;;;14.73;62.37;100580.00;3083174;46;20581;-74
2024/01/24 05:12:17;;;;;;;10.03;3.27;;;13.30;93.40;;;14.74;62.22;100550.63;3083118;46;20515;-75
2024/01/24 05:14:45;;;;;;;12.40;3.43;;;13.30;93.30;;;14.73;62.13;100595.91;3083015;46;21117;-75
2024/01/24 05:17:13;;;;;;;10.00;3.10;;;13.30;93.30;;;14.73;62.18;100582.66;3082512;46;20495;-75
2024/01/24 05:19:42;;;;;;;18.70;3.60;;;13.30;93.20;;;14.74;62.36;100585.09;3082981;46;20430;-75
2024/01/24 05:22:10;;;;;;;14.83;3.60;;;13.40;93.40;;;14.73;62.56;100591.41;3083182;46;20522;-74
2024/01/24 05:24:46;;;;;;;13.30;3.70;;;13.30;93.50;;;14.69;62.92;100606.06;3083287;46;21015;-75
2024/01/24 05:27:16;;;;;;;12.00;3.43;;;13.40;93.70;;;14.63;62.82;100604.25;3082511;46;20518;-75
2024/01/24 05:29:47;;;;;;;11.27;3.77;;;13.30;93.60;;;14.57;63.06;100598.97;3082699;46;21133;-75
2024/01/24 05:32:15;;;;;;;10.17;3.07;;;13.30;93.70;;;14.51;63.59;100603.22;3082554;46;21015;-74
2024/01/24 05:34:44;;;;;;;12.20;3.77;;;13.30;93.90;;;14.48;63.71;100603.63;3082929;46;20513;-74
2024/01/24 05:37:13;;;;;;;12.37;3.23;;;13.30;94.20;;;14.44;64.29;100628.91;3082801;46;20455;-75
2024/01/24 05:39:41;;;;;;;16.83;3.73;;;13.20;94.20;;;14.41;64.48;100633.75;3082813;46;20426;-74
2024/01/24 05:42:10;;;;;;;13.47;3.60;;;13.20;94.40;;;14.38;64.60;100639.50;3082896;46;20508;-75
2024/01/24 05:44:39;;;;;;;14.87;3.93;;;13.20;94.50;;;14.34;65.11;100657.59;3082416;46;20439;-75
2024/01/24 05:47:08;;;;;;;10.73;3.90;;;13.10;94.60;;;14.32;65.14;100658.81;3082300;46;20427;-75
2024/01/24 05:49:36;;;;;;;18.43;4.17;;;13.10;94.70;;;14.25;64.62;100666.72;3082632;46;20428;-75
2024/01/24 05:52:06;;;;;;;15.13;3.53;;;13.00;94.60;;;14.20;64.87;100674.44;3082502;46;20456;-74
2024/01/24 05:54:34;;;;;;;14.30;3.47;;;12.90;94.70;;;14.08;63.01;100654.84;3081636;46;20478;-75
2024/01/24 05:57:03;;;;;;;15.43;4.03;;;12.90;92.60;;;13.91;62.52;100653.56;3082157;46;20516;-75
2024/01/24 05:59:32;;;;;;;11.40;3.10;;;12.70;92.30;;;13.81;62.18;100669.03;3081969;46;20463;-75
2024/01/24 06:02:01;;;;;;;12.53;3.23;;;12.60;92.50;;;13.73;62.80;100661.25;3082699;46;20428;-75
2024/01/24 06:04:29;;;;;;;9.87;3.50;;;12.60;92.80;;;13.63;63.15;100676.63;3082538;46;20568;-75
2024/01/24 06:07:00;;;;;;;13.03;3.30;;;12.50;93.30;;;13.58;63.62;100667.47;3082058;46;20571;-75
2024/01/24 06:09:29;;;;;;;14.03;3.50;;;12.40;93.50;;;13.56;63.94;100655.47;3082358;46;20427;-75
2024/01/24 06:11:58;;;;;;;13.50;3.07;;;12.30;93.90;;;13.55;64.23;100681.09;3082412;46;21171;-74
2024/01/24 06:14:27;;;;;;;18.23;4.23;;;12.30;94.00;;;13.54;64.54;100679.47;3081500;46;20453;-75
2024/01/24 06:16:55;;;;;;;17.77;4.90;;;12.30;94.20;;;13.55;64.86;100682.91;3081782;46;20462;-74
2024/01/24 06:19:23;;;;;;;14.33;4.00;;;12.30;94.50;;;13.58;64.91;100701.03;3082253;46;20522;-75
2024/01/24 06:21:52;;;;;;;9.10;3.37;;;12.20;94.50;;;13.58;64.71;100701.84;3082270;46;20428;-75
2024/01/24 06:24:20;;;;;;;11.83;3.40;;;12.20;94.70;;;13.60;65.20;100706.16;3082354;46;20504;-75
2024/01/24 06:26:49;;;;;;;13.63;3.53;;;12.20;94.70;;;13.61;65.15;100715.69;3082113;46;20552;-74
2024/01/24 06:29:19;;;;;;;12.50;4.00;;;12.20;94.70;;;13.66;65.01;100697.41;3081973;46;20456;-73
2024/01/24 06:32:07;;;;;;;12.07;4.17;;;12.20;94.80;;;13.70;64.71;100717.16;3082270;46;20447;-74
2024/01/24 06:34:35;;;;;;;15.90;4.07;;;12.20;94.80;;;13.72;65.12;100699.28;3081569;46;20467;-75
2024/01/24 06:37:04;;;;;;;15.57;5.17;;;12.20;95.00;;;13.77;64.79;100704.78;3081765;46;20461;-74
2024/01/24 06:39:33;;;;;;;14.00;4.60;;;12.30;94.80;;;13.80;64.61;100717.63;3082023;46;20433;-74
2024/01/24 06:42:01;;;;;;;16.70;4.63;;;12.20;94.70;;;13.80;64.58;100730.88;3082203;46;20510;-75
2024/01/24 06:44:29;;;;;;;21.70;5.47;;;12.30;94.60;;;13.81;64.18;100711.34;3081706;46;20432;-74
2024/01/24 06:46:58;;;;;;;21.63;5.80;;;12.30;94.50;;;13.84;63.84;100716.22;3081628;46;20441;-75
2024/01/24 06:49:26;;;;;;;21.63;5.13;;;12.30;94.30;;;13.87;63.88;100721.13;3082197;46;20500;-75
2024/01/24 06:51:55;;;;;;;20.30;5.03;;;12.30;94.20;;;13.89;63.52;100714.63;3081916;46;20429;-74
2024/01/24 06:54:24;;;;;;;19.33;5.40;;;12.30;94.20;;;13.91;63.63;100727.66;3081942;46;20431;-75
2024/01/24 06:56:52;;;;;;;22.90;5.50;;;12.30;94.00;;;13.93;63.16;100720.38;3081304;46;21127;-75
2024/01/24 06:59:21;;;;;;;20.40;4.97;;;12.30;93.80;;;13.96;63.15;100735.81;3081139;46;20451;-75
2024/01/24 07:01:49;;;;;;;25.13;5.73;;;12.40;93.70;;;13.98;62.67;100728.50;3081532;46;21033;-74
2024/01/24 07:04:19;;;;;;;21.07;5.40;;;12.40;93.50;;;14.02;62.10;100727.13;3080445;46;20507;-75
2024/01/24 07:06:48;;;;;;;26.10;5.97;;;12.40;93.00;;;14.04;61.58;100736.50;3080195;46;20456;-75
2024/01/24 07:09:18;;;;;;;18.57;5.40;;;12.40;92.90;;;14.07;60.91;100737.94;3081070;46;20447;-75
2024/01/24 07:11:54;;;;;;;19.50;5.70;;;12.50;92.80;;;14.11;60.37;100749.75;3081587;46;20561;-75
2024/01/24 07:14:33;;;;;;;19.90;5.77;;;12.50;91.90;;;14.13;60.05;100758.31;3080444;46;20456;-75
2024/01/24 07:17:02;;;;;;;24.40;6.30;;;12.50;91.60;;;14.15;59.29;100761.56;3081261;46;20915;-75
2024/01/24 07:19:31;;;;;;;17.83;5.27;;;12.50;91.30;;;14.15;58.71;100745.69;3080888;46;20529;-75
2024/01/24 07:22:00;;;;;;;20.57;5.57;;;12.50;91.40;;;14.18;58.27;100771.78;3081641;46;20456;-75
2024/01/24 07:24:31;;;;;;;23.17;6.40;;;12.60;90.90;;;14.16;57.00;100742.84;3080067;46;20543;-75
2024/01/24 07:27:00;;;;;;;21.00;5.47;;;12.50;90.50;;;14.20;57.69;100775.03;3078264;46;20560;-75
2024/01/24 07:29:28;;;;;;;21.20;6.00;;;12.60;90.50;;;14.24;57.32;100782.38;3079729;46;20443;-74
2024/01/24 07:31:57;;;;;;;20.50;5.50;;;12.60;90.20;;;14.28;56.84;100777.53;3081056;46;20519;-75
2024/01/24 07:34:25;;;;;;;22.10;5.80;;;12.60;90.10;;;14.31;57.03;100771.84;3080460;46;20427;-75
2024/01/24 07:36:54;;;;;;;22.70;5.83;;;12.70;90.20;;;14.33;56.07;100759.25;3080549;43;20431;-75
2024/01/24 07:39:22;;;;;;;19.53;6.60;;;12.70;89.20;;;14.33;55.94;100777.78;3081565;46;21084;-75
2024/01/24 07:41:51;;;;;;;20.90;5.90;;;12.70;88.30;;;14.35;55.79;100773.09;3080856;46;20428;-74
2024/01/24 07:44:19;;;;;;;24.63;6.47;;;12.70;88.40;;;14.36;55.87;100785.31;3079874;46;20427;-74
2024/01/24 07:46:48;;;;;;;24.23;6.17;;;12.70;88.70;;;14.26;54.58;100776.91;3079345;43;21028;-73
2024/01/24 07:49:17;;;;;;;22.07;6.00;;;12.70;87.40;;;14.29;55.27;100787.09;3079950;46;20458;-74
2024/01/24 07:51:49;;;;;;;23.43;7.30;;;12.70;87.00;;;14.30;54.64;100807.28;3079344;46;20539;-74
2024/01/24 07:54:21;;;;;;;26.37;6.70;;;12.70;86.90;;;14.34;54.31;100787.34;3078932;46;20423;-74
2024/01/24 07:56:49;;;;;;;22.43;5.50;;;12.80;86.80;;;14.37;54.77;100770.25;3081129;46;21011;-75
2024/01/24 07:59:18;;;;;;;21.07;5.33;;;12.70;86.90;;;14.41;54.86;100790.84;3080175;43;20426;-75
2024/01/24 08:01:46;;;;;;;19.93;5.40;;;12.70;86.50;;;14.43;54.26;100804.69;3079895;46;21122;-75
2024/01/24 08:04:16;;;;;;;22.93;6.13;;;12.80;85.80;;;14.45;54.13;100793.91;3080456;46;20423;-75
2024/01/24 08:06:47;;;;;;;22.93;6.50;;;12.80;86.00;;;14.45;53.88;100810.63;3080427;46;20439;-74
2024/01/24 08:09:18;;;;;;;19.93;5.73;;;12.80;85.50;;;14.47;53.89;100798.00;3080037;46;20471;-75
2024/01/24 08:11:46;;;;;;;19.20;6.47;;;12.80;85.40;;;14.48;53.25;100801.44;3079644;46;20524;-73
2024/01/24 08:14:16;;;;;;;18.60;6.00;;;12.80;85.00;;;14.49;53.41;100806.56;3079300;46;20987;-74
2024/01/24 08:17:05;;;;;;;22.03;6.03;;;12.80;85.10;;;14.45;52.76;100810.63;3078024;46;23041;-74
2024/01/24 08:19:34;;;;;;;18.70;6.17;;;12.80;84.00;;;14.50;52.04;100813.47;3078811;46;20440;-74
2024/01/24 08:22:03;;;;;;;21.60;6.27;;;12.80;83.00;;;14.47;52.48;100819.19;3078688;46;20556;-75
2024/01/24 08:24:32;;;;;;;26.67;7.17;;;12.80;82.90;;;14.44;52.11;100830.16;3080203;46;20633;-75
2024/01/24 08:27:01;;;;;;;20.03;5.50;;;12.80;82.80;;;14.45;52.24;100836.28;3079602;46;20455;-75
2024/01/24 08:29:32;;;;;;;19.40;5.97;;;12.80;82.60;;;14.47;52.14;100829.78;3078780;46;20431;-74
2024/01/24 08:32:05;;;;;;;20.77;5.67;;;12.80;83.10;;;14.48;52.47;100836.69;3077367;43;21025;-75
2024/01/24 08:34:36;;;;;;;17.40;5.93;;;12.90;83.30;;;14.48;52.17;100857.88;3078336;46;20439;-75
2024/01/24 08:37:06;;;;;;;25.87;6.60;;;12.90;83.10;;;14.49;52.39;100833.03;3076775;46;21120;-75
2024/01/24 08:39:35;;;;;;;24.57;6.50;;;12.90;83.10;;;14.48;51.78;100849.13;3080404;46;20519;-75
2024/01/24 08:42:04;;;;;;;22.60;6.27;;;12.80;82.70;;;14.44;51.45;100851.34;3082579;46;20467;-75
2024/01/24 08:44:32;;;;;;;24.80;6.00;;;12.80;81.60;;;14.44;51.63;100846.06;3081922;43;20525;-74
2024/01/24 08:47:08;;;;;;;26.00;6.60;;;12.80;82.30;;;14.46;51.61;100873.16;3081405;46;20428;-76
2024/01/24 08:49:36;;;;;;;26.47;6.73;;;12.80;82.50;;;14.44;51.97;100875.19;3082678;46;20427;-75
2024/01/24 08:52:05;;;;;;;24.33;6.63;;;12.90;82.70;;;14.46;52.00;100859.91;3081503;46;20447;-75
2024/01/24 08:54:34;;;;;;;25.43;6.17;;;12.90;82.70;;;14.48;51.93;100868.47;3082611;46;20432;-75
2024/01/24 08:57:06;;;;;;;21.97;6.27;;;12.80;83.00;;;14.49;52.15;100870.13;3081791;46;20432;-75
2024/01/24 08:59:34;;;;;;;26.13;6.20;;;12.80;82.80;;;14.50;51.82;100858.50;3081391;46;20568;-75
2024/01/24 09:02:04;;;;;;;23.77;6.47;;;12.80;82.70;;;14.53;51.83;100876.66;3080102;46;21035;-75
2024/01/24 09:04:36;;;;;;;22.07;6.27;;;12.80;82.70;;;14.56;52.27;100897.47;3081658;43;20508;-75
2024/01/24 09:07:05;;;;;;;24.43;7.07;;;12.90;83.10;;;14.55;51.79;100895.81;3080628;46;21015;-75
2024/01/24 09:09:34;;;;;;;17.73;5.67;;;12.90;82.70;;;14.57;52.23;100901.72;3081981;46;20505;-76
2024/01/24 09:12:08;;;;;;;24.53;6.33;;;12.90;83.10;;;14.59;52.32;100893.59;3082457;46;20473;-75
2024/01/24 09:14:37;;;;;;;24.50;6.63;;;12.90;83.30;;;14.61;52.17;100916.25;3082362;46;20446;-76
2024/01/24 09:17:13;;;;;;;21.50;6.00;;;12.90;83.20;;;14.62;52.04;100927.66;3081299;46;20427;-76
2024/01/24 09:19:44;;;;;;;27.03;5.53;;;12.90;83.20;;;14.63;52.20;100943.34;3080488;46;20541;-75
2024/01/24 09:22:12;;;;;;;24.20;6.60;;;13.00;83.40;;;14.65;51.92;100943.97;3081481;46;20447;-74
2024/01/24 09:24:53;;;;;;;24.63;6.03;;;12.90;82.90;;;14.62;52.03;100927.66;3079988;46;20517;-73
2024/01/24 09:27:22;;;;;;;23.97;6.23;;;12.90;82.80;;;14.64;51.92;100915.03;3080250;46;20949;-75
2024/01/24 09:29:51;;;;;;;21.97;6.57;;;12.90;83.00;;;14.64;52.00;100918.47;3081210;46;20479;-75
2024/01/24 09:32:23;;;;;;;25.77;6.33;;;13.00;83.00;;;14.63;52.08;100919.50;3080278;46;20466;-76
2024/01/24 09:34:55;;;;;;;20.67;5.27;;;13.00;83.10;;;14.65;52.21;100938.66;3079385;46;20474;-76
2024/01/24 09:37:27;;;;;;;25.57;7.07;;;13.00;83.20;;;14.67;51.88;100920.75;3081179;46;21039;-74
2024/01/24 09:39:56;;;;;;;25.53;6.50;;;12.90;82.00;;;14.68;51.17;100932.97;3081032;46;20454;-75
2024/01/24 09:42:26;;;;;;;17.00;5.30;;;13.00;81.90;;;14.70;51.42;100930.94;3080835;46;20468;-75
2024/01/24 09:44:58;;;;;;;20.53;5.57;;;13.00;82.00;;;14.71;50.78;100932.56;3081154;46;20427;-74
2024/01/24 09:47:26;;;;;;;21.00;6.33;;;13.00;81.50;;;14.71;51.17;100953.78;3082518;46;20439;-76
2024/01/24 09:49:56;;;;;;;21.30;6.47;;;13.00;81.70;;;14.72;51.37;100942.16;3079157;43;20561;-73
2024/01/24 09:52:26;;;;;;;25.53;6.33;;;13.00;81.80;;;14.70;51.09;100944.19;3081970;46;20460;-74
2024/01/24 09:55:04;;;;;;;24.73;5.83;;;13.00;81.90;;;14.70;51.40;100936.25;3081066;46;20427;-75
2024/01/24 09:57:33;;;;;;;24.10;6.17;;;13.10;82.20;;;14.75;51.10;100973.59;3081152;46;20488;-74
2024/01/24 10:00:04;;;;;;;19.47;5.87;;;13.00;81.40;;;14.74;50.94;100953.38;3081532;46;20468;-76
2024/01/24 10:02:32;;;;;;;18.77;5.70;;;13.00;81.10;;;14.74;50.80;100945.44;3079140;46;20487;-74
2024/01/24 10:05:10;;;;;;;18.73;6.03;;;13.10;81.30;;;14.76;50.65;100963.81;3077348;46;21023;-75
2024/01/24 10:07:41;;;;;;;28.83;5.87;;;13.10;80.80;;;14.79;50.58;100971.34;3078749;46;20439;-74
2024/01/24 10:10:12;;;;;;;25.03;6.60;;;13.10;81.00;;;14.79;50.71;100976.66;3080357;46;20431;-75
2024/01/24 10:12:42;;;;;;;22.23;5.80;;;13.10;80.60;;;14.78;50.63;100970.53;3078912;46;20980;-75
2024/01/24 10:15:11;;;;;;;19.73;5.67;;;13.10;80.80;;;14.78;50.65;100981.16;3080958;46;20448;-75
2024/01/24 10:17:43;;;;;;;22.73;5.73;;;13.10;80.30;;;14.77;50.11;100997.22;3078967;46;21401;-73
2024/01/24 10:20:12;;;;;;;17.10;5.90;;;13.10;79.90;;;14.72;50.42;100981.91;3078922;46;20451;-74